X  Κλείσε Στοιχεία αεροπορικών μετεωρολογικών δεδομένων METAR     LGRX Patras Araxos Agamemnon Airport
Θερμοκρασία
17°C Θερμοκρασία
10°C Σημείο δρόσου
64% Υγρασία



Άνεμος
0 M/S
0 MPH
0 KM/H
0 KTS



Άπνοια
Β
Τρέχουσες Συνθήκες

Καθαρός Καθαρός
Πίεση 1019.92 (hPa) - 30.12 (inHg)
Ορατότητα 6.2 (μίλια) - 10 (km)
Aεροδρόμιο
Κωδικός Αεροδρομίου LGRX

Τοποθεσία: Patras Araxos Agamemnon Airport
Απόσταση: 108 (km)

Metar:
LGRX 241850Z 00000KT CAVOK 17/10 Q1020 BLU

ώρα: 24-09-2022 21:50 EEST